createdAt,value
2019-04-07T00:01:13.546Z,18.70
2019-04-07T00:03:42.407Z,21.80
2019-04-07T00:06:11.287Z,21.13
2019-04-07T00:08:39.768Z,20.30
2019-04-07T00:11:08.378Z,20.13
2019-04-07T00:13:36.861Z,21.60
2019-04-07T00:16:05.385Z,21.30
2019-04-07T00:18:33.875Z,21.45
2019-04-07T00:21:02.393Z,20.60
2019-04-07T00:23:30.870Z,23.10
2019-04-07T00:25:59.318Z,20.70
2019-04-07T00:28:27.882Z,23.00
2019-04-07T00:30:56.342Z,20.80
2019-04-07T00:33:25.544Z,20.35
2019-04-07T00:35:54.158Z,22.80
2019-04-07T00:38:22.829Z,21.90
2019-04-07T00:40:51.389Z,20.82
2019-04-07T00:43:19.962Z,23.35
2019-04-07T00:45:49.151Z,23.05
2019-04-07T00:48:17.821Z,22.70
2019-04-07T00:50:46.962Z,23.70
2019-04-07T00:53:15.641Z,23.77
2019-04-07T00:55:44.140Z,21.30
2019-04-07T00:58:12.622Z,24.60
2019-04-07T01:00:42.447Z,24.67
2019-04-07T01:03:11.533Z,22.55
2019-04-07T01:05:42.469Z,22.53
2019-04-07T01:08:10.907Z,21.65
2019-04-07T01:10:39.437Z,22.48
2019-04-07T01:13:07.929Z,24.35
2019-04-07T01:15:36.387Z,25.48
2019-04-07T01:18:05.376Z,21.82
2019-04-07T01:20:33.946Z,25.53
2019-04-07T01:23:02.849Z,22.75
2019-04-07T01:25:31.492Z,22.80
2019-04-07T01:27:59.981Z,23.63
2019-04-07T01:30:28.457Z,22.20
2019-04-07T01:32:57.499Z,22.90
2019-04-07T01:35:26.684Z,21.93
2019-04-07T01:37:55.252Z,23.30
2019-04-07T01:40:23.736Z,23.10
2019-04-07T01:43:09.216Z,22.20
2019-04-07T01:45:51.594Z,23.10
2019-04-07T01:48:38.007Z,19.77
2019-04-07T01:51:24.646Z,22.02
2019-04-07T01:53:54.934Z,20.62
2019-04-07T01:56:41.622Z,20.02
2019-04-07T01:59:12.187Z,20.37
2019-04-07T02:01:42.743Z,21.62
2019-04-07T02:04:13.048Z,21.33
2019-04-07T02:06:45.662Z,22.60
2019-04-07T02:09:27.955Z,23.18
2019-04-07T02:12:03.818Z,25.00
2019-04-07T02:14:34.519Z,23.87
2019-04-07T02:17:07.481Z,22.35
2019-04-07T02:19:43.633Z,23.42
2019-04-07T02:22:29.991Z,23.10
2019-04-07T02:25:02.848Z,22.52
2019-04-07T02:27:39.517Z,24.60
2019-04-07T02:30:22.303Z,23.35
2019-04-07T02:32:52.561Z,22.25
2019-04-07T02:35:41.856Z,24.07
2019-04-07T02:38:24.427Z,21.47
2019-04-07T02:41:12.577Z,19.77
2019-04-07T02:43:51.352Z,21.87
2019-04-07T02:46:24.412Z,19.20
2019-04-07T02:48:54.512Z,18.05
2019-04-07T02:51:27.306Z,18.37
2019-04-07T02:54:02.897Z,18.32
2019-04-07T02:56:45.055Z,20.55
2019-04-07T02:59:25.311Z,20.10
2019-04-07T03:02:01.409Z,20.27
2019-04-07T03:04:50.115Z,18.43
2019-04-07T03:07:29.533Z,18.10
2019-04-07T03:10:05.129Z,17.93
2019-04-07T03:12:35.458Z,18.83
2019-04-07T03:15:12.993Z,18.63
2019-04-07T03:17:49.662Z,19.07
2019-04-07T03:20:23.095Z,17.65
2019-04-07T03:23:09.407Z,17.82
2019-04-07T03:25:51.599Z,18.17
2019-04-07T03:28:24.661Z,18.00
2019-04-07T03:31:02.093Z,17.80
2019-04-07T03:33:49.844Z,19.87
2019-04-07T03:36:23.245Z,18.00
2019-04-07T03:38:55.753Z,19.20
2019-04-07T03:41:26.070Z,18.73
2019-04-07T03:44:01.862Z,20.20
2019-04-07T03:46:49.361Z,18.50
2019-04-07T03:49:23.376Z,20.50
2019-04-07T03:52:07.107Z,16.90
2019-04-07T03:54:54.595Z,17.87
2019-04-07T03:57:41.107Z,17.90
2019-04-07T04:00:23.610Z,18.80
2019-04-07T04:02:56.753Z,18.00
2019-04-07T04:05:27.379Z,17.67
2019-04-07T04:08:00.901Z,20.17
2019-04-07T04:10:31.100Z,21.02
2019-04-07T04:13:05.165Z,18.83
2019-04-07T04:15:36.485Z,19.93
2019-04-07T04:18:05.430Z,21.02
2019-04-07T04:20:34.549Z,21.27
2019-04-07T04:23:03.964Z,20.93
2019-04-07T04:25:32.730Z,22.77
2019-04-07T04:28:01.410Z,21.20
2019-04-07T04:30:30.170Z,20.90
2019-04-07T04:32:59.699Z,21.30
2019-04-07T04:35:28.366Z,21.37
2019-04-07T04:37:56.951Z,21.77
2019-04-07T04:40:25.458Z,21.07
2019-04-07T04:42:54.937Z,19.63
2019-04-07T04:45:24.562Z,20.57
2019-04-07T04:47:53.774Z,19.60
2019-04-07T04:50:23.521Z,18.97
2019-04-07T04:52:52.347Z,18.40
2019-04-07T04:55:24.135Z,18.85
2019-04-07T04:57:52.776Z,17.77
2019-04-07T05:00:21.813Z,17.40
2019-04-07T05:02:50.370Z,17.53
2019-04-07T05:05:18.799Z,17.07
2019-04-07T05:07:56.964Z,17.30
2019-04-07T05:10:17.457Z,17.53
2019-04-07T05:12:45.914Z,18.90
2019-04-07T05:15:14.750Z,18.40
2019-04-07T05:17:43.635Z,18.70
2019-04-07T05:20:12.446Z,15.60
2019-04-07T05:22:41.234Z,16.23
2019-04-07T05:25:09.966Z,17.93
2019-04-07T05:27:38.472Z,18.77
2019-04-07T05:30:07.826Z,17.20
2019-04-07T05:32:36.807Z,15.50
2019-04-07T05:35:07.893Z,15.00
2019-04-07T05:37:37.246Z,14.07
2019-04-07T05:40:07.065Z,14.27
2019-04-07T05:42:36.494Z,13.43
2019-04-07T05:45:06.578Z,12.33
2019-04-07T05:47:35.232Z,15.50
2019-04-07T05:50:05.486Z,16.13
2019-04-07T05:52:38.593Z,14.10
2019-04-07T05:55:05.987Z,15.17
2019-04-07T05:57:35.880Z,15.43
2019-04-07T06:00:07.304Z,15.80
2019-04-07T06:02:36.313Z,16.53
2019-04-07T06:05:06.568Z,17.10
2019-04-07T06:07:36.778Z,21.80
2019-04-07T06:10:07.977Z,25.83
2019-04-07T06:12:39.277Z,30.17
2019-04-07T06:15:07.524Z,30.27
2019-04-07T06:17:36.700Z,31.43
2019-04-07T06:20:11.755Z,30.30
2019-04-07T06:22:38.821Z,32.27
2019-04-07T06:25:08.848Z,32.80
2019-04-07T06:27:38.391Z,32.80
2019-04-07T06:30:09.664Z,31.00
2019-04-07T06:32:39.518Z,32.23
2019-04-07T06:35:08.522Z,29.87
2019-04-07T06:37:37.393Z,31.83
2019-04-07T06:40:06.423Z,32.80
2019-04-07T06:42:35.477Z,31.17
2019-04-07T06:45:07.350Z,33.50
2019-04-07T06:47:46.601Z,33.27
2019-04-07T06:50:20.602Z,32.67
2019-04-07T06:52:57.576Z,33.83
2019-04-07T06:55:36.835Z,36.33
2019-04-07T06:58:18.661Z,33.33
2019-04-07T07:01:04.726Z,33.03
2019-04-07T07:03:46.465Z,34.03
2019-04-07T07:06:18.203Z,33.50
2019-04-07T07:09:07.288Z,34.10
2019-04-07T07:11:40.696Z,31.73
2019-04-07T07:14:30.023Z,33.60
2019-04-07T07:16:59.520Z,33.83
2019-04-07T07:19:42.311Z,31.13
2019-04-07T07:22:31.137Z,31.27
2019-04-07T07:25:01.203Z,32.20
2019-04-07T07:27:30.031Z,30.50
2019-04-07T07:29:58.572Z,30.43
2019-04-07T07:32:27.047Z,31.33
2019-04-07T07:34:55.493Z,27.40
2019-04-07T07:37:25.287Z,28.70
2019-04-07T07:39:54.306Z,30.73
2019-04-07T07:42:24.177Z,29.77
2019-04-07T07:44:53.555Z,27.03
2019-04-07T07:47:22.913Z,29.37
2019-04-07T07:49:52.359Z,28.70
2019-04-07T07:52:21.944Z,27.40
2019-04-07T07:54:50.873Z,27.33
2019-04-07T07:57:22.794Z,26.87
2019-04-07T07:59:50.036Z,26.60
2019-04-07T08:02:19.956Z,24.77
2019-04-07T08:04:48.810Z,25.33
2019-04-07T08:07:18.212Z,25.13
2019-04-07T08:09:47.034Z,23.20
2019-04-07T08:12:16.251Z,24.27
2019-04-07T08:14:50.261Z,22.90
2019-04-07T08:17:15.071Z,24.70
2019-04-07T08:19:44.561Z,22.67
2019-04-07T08:22:25.359Z,23.67
2019-04-07T08:24:43.967Z,26.00
2019-04-07T08:27:13.949Z,22.07
2019-04-07T08:29:42.474Z,22.80
2019-04-07T08:32:11.099Z,23.80
2019-04-07T08:34:40.369Z,22.80
2019-04-07T08:37:09.510Z,23.40
2019-04-07T08:39:38.721Z,21.83
2019-04-07T08:42:10.723Z,20.67
2019-04-07T08:44:37.627Z,21.17
2019-04-07T08:47:06.617Z,20.90
2019-04-07T08:49:35.793Z,20.57
2019-04-07T08:52:09.662Z,21.97
2019-04-07T08:54:35.594Z,21.37
2019-04-07T08:57:04.607Z,21.00
2019-04-07T08:59:33.190Z,22.80
2019-04-07T09:02:01.943Z,19.93
2019-04-07T09:04:30.686Z,19.93
2019-04-07T09:07:01.545Z,21.43
2019-04-07T09:09:34.138Z,19.73
2019-04-07T09:12:00.373Z,20.10
2019-04-07T09:14:29.530Z,20.80
2019-04-07T09:17:05.188Z,19.73
2019-04-07T09:19:44.370Z,20.03
2019-04-07T09:22:22.825Z,18.83
2019-04-07T09:25:09.518Z,19.77
2019-04-07T09:27:43.227Z,18.00
2019-04-07T09:30:16.550Z,17.20
2019-04-07T09:33:04.941Z,18.00
2019-04-07T09:35:52.616Z,18.87
2019-04-07T09:38:24.841Z,17.80
2019-04-07T09:41:01.582Z,18.40
2019-04-07T09:43:35.822Z,16.27
2019-04-07T09:46:09.215Z,17.80
2019-04-07T09:48:50.992Z,16.10
2019-04-07T09:51:32.013Z,16.73
2019-04-07T09:54:03.005Z,16.43
2019-04-07T09:56:33.765Z,18.07
2019-04-07T09:59:22.890Z,17.77
2019-04-07T10:01:59.473Z,17.40
2019-04-07T10:04:27.659Z,18.40
2019-04-07T10:07:00.706Z,18.93
2019-04-07T10:09:46.995Z,17.90
2019-04-07T10:12:23.246Z,19.60
2019-04-07T10:14:54.031Z,19.17
2019-04-07T10:17:40.391Z,18.10
2019-04-07T10:20:27.475Z,19.03
2019-04-07T10:23:09.512Z,18.90
2019-04-07T10:25:42.336Z,19.07
2019-04-07T10:28:22.369Z,18.30
2019-04-07T10:30:56.608Z,19.70
2019-04-07T10:33:27.255Z,20.40
2019-04-07T10:36:13.787Z,19.07
2019-04-07T10:38:46.511Z,21.30
2019-04-07T10:41:17.216Z,21.90
2019-04-07T10:43:50.344Z,22.53
2019-04-07T10:46:33.579Z,21.20
2019-04-07T10:49:12.631Z,19.90
2019-04-07T10:51:52.130Z,18.27
2019-04-07T10:54:22.480Z,21.00
2019-04-07T10:56:54.112Z,19.60
2019-04-07T10:59:34.164Z,21.93
2019-04-07T11:02:10.335Z,20.80
2019-04-07T11:04:57.335Z,20.47
2019-04-07T11:07:33.849Z,19.63
2019-04-07T11:10:04.759Z,19.40
2019-04-07T11:12:37.896Z,19.87
2019-04-07T11:15:21.359Z,19.50
2019-04-07T11:18:09.348Z,21.87
2019-04-07T11:20:55.812Z,20.87
2019-04-07T11:23:26.150Z,20.60
2019-04-07T11:26:08.967Z,19.90
2019-04-07T11:28:44.863Z,18.93
2019-04-07T11:31:21.221Z,19.77
2019-04-07T11:33:52.425Z,19.97
2019-04-07T11:36:31.809Z,20.17
2019-04-07T11:39:02.546Z,20.90
2019-04-07T11:41:44.906Z,19.13
2019-04-07T11:44:15.054Z,19.30
2019-04-07T11:46:45.160Z,21.43
2019-04-07T11:49:31.225Z,20.40
2019-04-07T11:52:18.224Z,20.83
2019-04-07T11:54:49.212Z,21.97
2019-04-07T11:57:22.583Z,20.73
2019-04-07T11:59:58.804Z,21.20
2019-04-07T12:02:40.440Z,22.87
2019-04-07T12:05:22.421Z,22.47
2019-04-07T12:07:57.201Z,22.03
2019-04-07T12:10:30.088Z,21.60
2019-04-07T12:13:03.691Z,21.77
2019-04-07T12:15:34.714Z,22.07
2019-04-07T12:18:07.372Z,21.30
2019-04-07T12:20:37.553Z,20.23
2019-04-07T12:23:08.222Z,20.80
2019-04-07T12:25:41.638Z,21.27
2019-04-07T12:28:27.977Z,22.30
2019-04-07T12:31:16.465Z,22.10
2019-04-07T12:34:01.589Z,21.80
2019-04-07T12:36:47.924Z,20.43
2019-04-07T12:39:21.205Z,21.33
2019-04-07T12:41:55.985Z,21.40
2019-04-07T12:44:38.269Z,19.37
2019-04-07T12:47:14.556Z,21.20
2019-04-07T12:49:47.555Z,22.23
2019-04-07T12:52:33.686Z,20.87
2019-04-07T12:55:17.947Z,22.97
2019-04-07T12:58:09.772Z,21.77
2019-04-07T13:00:55.020Z,21.13
2019-04-07T13:03:15.056Z,20.80
2019-04-07T13:05:59.086Z,21.37
2019-04-07T13:08:29.369Z,21.20
2019-04-07T13:11:26.466Z,21.60
2019-04-07T13:13:48.152Z,21.73
2019-04-07T13:16:30.599Z,21.57
2019-04-07T13:19:04.292Z,23.30
2019-04-07T13:21:40.449Z,24.00
2019-04-07T13:24:12.916Z,21.57
2019-04-07T13:26:55.146Z,20.20
2019-04-07T13:29:31.295Z,23.13
2019-04-07T13:32:01.511Z,23.13
2019-04-07T13:34:40.375Z,22.03
2019-04-07T13:37:25.442Z,22.50
2019-04-07T13:40:12.979Z,22.50
2019-04-07T13:42:45.716Z,22.67
2019-04-07T13:45:34.433Z,23.10
2019-04-07T13:48:05.917Z,22.90
2019-04-07T13:50:38.992Z,23.80
2019-04-07T13:53:09.897Z,22.57
2019-04-07T13:55:49.862Z,23.73
2019-04-07T13:58:26.186Z,24.13
2019-04-07T14:00:59.071Z,22.60
2019-04-07T14:03:30.241Z,22.40
2019-04-07T14:06:04.493Z,23.73
2019-04-07T14:08:43.801Z,22.03
2019-04-07T14:11:30.547Z,22.23
2019-04-07T14:14:01.306Z,21.83
2019-04-07T14:16:41.241Z,23.40
2019-04-07T14:19:21.065Z,22.73
2019-04-07T14:21:55.619Z,22.43
2019-04-07T14:24:29.520Z,21.73
2019-04-07T14:27:03.262Z,21.70
2019-04-07T14:29:36.943Z,22.37
2019-04-07T14:32:23.515Z,22.40
2019-04-07T14:34:53.664Z,20.83
2019-04-07T14:37:27.455Z,21.40
2019-04-07T14:39:57.694Z,22.37
2019-04-07T14:42:28.591Z,22.00
2019-04-07T14:45:00.188Z,22.93
2019-04-07T14:47:42.637Z,23.17
2019-04-07T14:50:13.283Z,22.03
2019-04-07T14:52:43.403Z,22.60
2019-04-07T14:55:31.572Z,23.13
2019-04-07T14:58:01.771Z,21.80
2019-04-07T15:00:47.501Z,20.80
2019-04-07T15:03:16.956Z,20.50
2019-04-07T15:05:47.270Z,19.53
2019-04-07T15:08:23.686Z,20.30
2019-04-07T15:10:56.711Z,22.27
2019-04-07T15:13:29.382Z,19.80
2019-04-07T15:15:58.356Z,19.73
2019-04-07T15:18:27.593Z,19.77
2019-04-07T15:20:56.202Z,18.97
2019-04-07T15:23:25.050Z,16.33
2019-04-07T15:25:53.663Z,19.40
2019-04-07T15:28:22.579Z,19.50
2019-04-07T15:30:51.732Z,19.00
2019-04-07T15:33:21.022Z,19.53
2019-04-07T15:35:50.485Z,19.83
2019-04-07T15:38:23.855Z,18.27
2019-04-07T15:40:49.532Z,18.30
2019-04-07T15:43:19.048Z,21.97
2019-04-07T15:45:48.648Z,18.13
2019-04-07T15:48:17.308Z,18.63
2019-04-07T15:50:45.825Z,18.23
2019-04-07T15:53:15.592Z,18.00
2019-04-07T15:55:51.028Z,19.03
2019-04-07T15:58:15.138Z,19.30
2019-04-07T16:00:44.198Z,17.27
2019-04-07T16:03:15.688Z,19.30
2019-04-07T16:05:46.136Z,20.20
2019-04-07T16:08:14.239Z,21.13
2019-04-07T16:10:42.759Z,19.80
2019-04-07T16:13:11.223Z,19.40
2019-04-07T16:15:42.783Z,20.30
2019-04-07T16:18:10.613Z,20.67
2019-04-07T16:20:40.354Z,20.57
2019-04-07T16:23:10.286Z,21.27
2019-04-07T16:25:40.521Z,19.97
2019-04-07T16:28:13.137Z,20.17
2019-04-07T16:30:40.679Z,20.10
2019-04-07T16:33:10.004Z,20.10
2019-04-07T16:35:39.724Z,18.93
2019-04-07T16:38:09.453Z,19.30
2019-04-07T16:40:40.531Z,20.23
2019-04-07T16:43:14.527Z,20.87
2019-04-07T16:45:38.823Z,22.27
2019-04-07T16:48:07.761Z,19.20
2019-04-07T16:50:37.036Z,19.23
2019-04-07T16:53:07.630Z,18.67
2019-04-07T16:55:41.485Z,17.37
2019-04-07T16:58:10.457Z,19.20
2019-04-07T17:00:39.851Z,17.70
2019-04-07T17:03:09.877Z,18.27
2019-04-07T17:05:39.672Z,19.23
2019-04-07T17:08:08.711Z,18.10
2019-04-07T17:10:37.417Z,18.87
2019-04-07T17:13:17.866Z,19.33
2019-04-07T17:15:39.548Z,19.97
2019-04-07T17:18:10.227Z,18.33
2019-04-07T17:20:39.048Z,17.23
2019-04-07T17:23:07.628Z,18.90
2019-04-07T17:25:36.182Z,17.33
2019-04-07T17:28:06.382Z,19.23
2019-04-07T17:30:36.942Z,18.57
2019-04-07T17:33:06.448Z,19.00
2019-04-07T17:35:35.875Z,37.03
2019-04-07T17:38:06.914Z,22.07
2019-04-07T17:40:37.651Z,19.00
2019-04-07T17:43:10.722Z,24.03
2019-04-07T17:45:43.730Z,25.43
2019-04-07T17:48:38.580Z,19.87
2019-04-07T17:51:11.399Z,19.03
2019-04-07T17:53:45.441Z,17.23
2019-04-07T17:56:20.131Z,19.57
2019-04-07T17:58:59.797Z,21.23
2019-04-07T18:01:43.066Z,18.27
2019-04-07T18:04:15.575Z,19.47
2019-04-07T18:07:03.494Z,19.70
2019-04-07T18:09:39.552Z,20.93
2019-04-07T18:12:19.737Z,20.60
2019-04-07T18:15:19.111Z,17.73
2019-04-07T18:17:49.931Z,17.70
2019-04-07T18:20:20.276Z,17.77
2019-04-07T18:23:07.414Z,18.27
2019-04-07T18:25:41.355Z,17.30
2019-04-07T18:28:12.071Z,16.37
2019-04-07T18:31:00.405Z,17.67
2019-04-07T18:33:36.840Z,17.93
2019-04-07T18:36:07.931Z,17.90
2019-04-07T18:38:46.096Z,18.20
2019-04-07T18:41:16.615Z,17.47
2019-04-07T18:44:05.578Z,16.73
2019-04-07T18:46:52.333Z,22.40
2019-04-07T18:49:34.121Z,21.93
2019-04-07T18:52:04.281Z,21.40
2019-04-07T18:54:47.413Z,21.30
2019-04-07T18:57:17.820Z,20.40
2019-04-07T19:00:01.253Z,18.77
2019-04-07T19:02:28.933Z,17.77
2019-04-07T19:05:15.322Z,11.50
2019-04-07T19:07:47.147Z,13.97
2019-04-07T19:10:25.567Z,17.40
2019-04-07T19:13:10.987Z,16.70
2019-04-07T19:15:38.721Z,20.07
2019-04-07T19:18:27.180Z,17.63
2019-04-07T19:21:03.595Z,16.20
2019-04-07T19:23:39.849Z,19.43
2019-04-07T19:26:18.920Z,19.20
2019-04-07T19:29:08.934Z,21.00
2019-04-07T19:31:49.705Z,20.53
2019-04-07T19:34:21.248Z,20.47
2019-04-07T19:36:52.115Z,19.20
2019-04-07T19:39:26.314Z,22.60
2019-04-07T19:42:00.900Z,23.10
2019-04-07T19:44:48.765Z,22.03
2019-04-07T19:47:26.166Z,22.47
2019-04-07T19:49:59.534Z,21.20
2019-04-07T19:52:46.461Z,22.53
2019-04-07T19:55:24.912Z,24.37
2019-04-07T19:58:09.791Z,21.70
2019-04-07T20:00:40.024Z,23.10
2019-04-07T20:03:13.183Z,24.27
2019-04-07T20:05:44.458Z,21.13
2019-04-07T20:08:33.811Z,22.40
2019-04-07T20:11:03.137Z,21.07
2019-04-07T20:13:42.451Z,21.70
2019-04-07T20:16:21.925Z,20.43
2019-04-07T20:18:58.599Z,21.10
2019-04-07T20:21:39.101Z,22.40
2019-04-07T20:24:03.657Z,22.03
2019-04-07T20:26:52.530Z,21.80
2019-04-07T20:29:21.573Z,20.50
2019-04-07T20:31:53.363Z,19.60
2019-04-07T20:34:40.130Z,17.97
2019-04-07T20:37:25.297Z,18.27
2019-04-07T20:40:09.387Z,19.80
2019-04-07T20:42:51.615Z,18.10
2019-04-07T20:45:22.527Z,18.10
2019-04-07T20:48:09.351Z,19.37
2019-04-07T20:50:56.247Z,18.73
2019-04-07T20:53:32.778Z,16.97
2019-04-07T20:56:20.796Z,18.43
2019-04-07T20:59:06.761Z,19.90
2019-04-07T21:01:58.770Z,21.30
2019-04-07T21:04:19.926Z,22.37
2019-04-07T21:06:50.883Z,21.10
2019-04-07T21:09:35.408Z,20.83
2019-04-07T21:12:17.450Z,22.60
2019-04-07T21:15:16.967Z,22.57
2019-04-07T21:17:52.426Z,23.20
2019-04-07T21:20:32.102Z,21.80
2019-04-07T21:23:08.054Z,24.93
2019-04-07T21:25:57.189Z,23.87
2019-04-07T21:28:36.823Z,24.00
2019-04-07T21:31:08.622Z,23.90
2019-04-07T21:33:50.812Z,27.63
2019-04-07T21:36:39.940Z,25.63
2019-04-07T21:39:23.076Z,26.37
2019-04-07T21:41:59.445Z,28.57
2019-04-07T21:44:30.421Z,29.27
2019-04-07T21:47:09.719Z,28.80
2019-04-07T21:49:49.243Z,24.00
2019-04-07T21:52:31.610Z,24.83
2019-04-07T21:55:01.753Z,26.07
2019-04-07T21:57:34.500Z,22.30
2019-04-07T22:00:04.996Z,22.17
2019-04-07T22:02:51.784Z,20.57
2019-04-07T22:05:25.912Z,20.30
2019-04-07T22:08:09.544Z,16.80
2019-04-07T22:10:32.779Z,19.20
2019-04-07T22:13:04.832Z,16.80
2019-04-07T22:15:45.077Z,15.47
2019-04-07T22:18:02.499Z,16.37
2019-04-07T22:20:31.927Z,16.97
2019-04-07T22:23:02.432Z,16.87
2019-04-07T22:25:32.607Z,16.60
2019-04-07T22:28:01.477Z,16.07
2019-04-07T22:30:30.629Z,16.13
2019-04-07T22:32:59.814Z,16.57
2019-04-07T22:35:28.677Z,19.30
2019-04-07T22:37:57.244Z,16.60
2019-04-07T22:40:26.638Z,18.30
2019-04-07T22:42:56.200Z,19.10
2019-04-07T22:45:28.548Z,16.80
2019-04-07T22:47:55.171Z,17.17
2019-04-07T22:50:23.663Z,18.70
2019-04-07T22:52:52.215Z,18.17
2019-04-07T22:55:20.885Z,18.17
2019-04-07T22:57:49.569Z,19.00
2019-04-07T23:00:21.339Z,19.57
2019-04-07T23:02:50.163Z,22.03
2019-04-07T23:05:19.116Z,22.07
2019-04-07T23:07:48.147Z,23.33
2019-04-07T23:10:17.665Z,19.10
2019-04-07T23:12:46.395Z,20.37
2019-04-07T23:15:15.205Z,23.30
2019-04-07T23:17:43.698Z,21.50
2019-04-07T23:20:13.095Z,22.03
2019-04-07T23:22:42.415Z,20.73
2019-04-07T23:25:12.003Z,22.40
2019-04-07T23:27:41.546Z,23.60
2019-04-07T23:30:11.106Z,21.00
2019-04-07T23:32:39.743Z,21.63
2019-04-07T23:35:08.446Z,20.80
2019-04-07T23:37:37.065Z,21.67
2019-04-07T23:40:06.661Z,23.37
2019-04-07T23:42:36.049Z,22.40
2019-04-07T23:45:08.271Z,22.40
2019-04-07T23:47:36.936Z,23.87
2019-04-07T23:50:09.416Z,22.37
2019-04-07T23:52:37.863Z,22.30
2019-04-07T23:55:06.550Z,22.20
2019-04-07T23:57:35.978Z,20.40
